Anvik Airport Anvik US
ICAO: PANV
IATA:
Category: Medium
Scheduled Services:

Elevation: 291 ft
TransAlt. 18000 ft.

Airport Communications:
AWOS 3:133.55
ANCHORAGE CNTR:135.7
KENAI RDO:122.4
CTAF/UNICOM:122.7

PANV Zoom In..

Runways:

(A) RW 17 length 4000 ft width 75 ft
---- / hdg 172

(B) RW 35 length 4000 ft width 75 ft
---- / hdg 352

Location; PANV
Day. 09 / Time. 00.56 Zulu
* Altimeter: 29.78
* Temperature: 14° c. 57.2°f.
* Wind from: 000° Speed 00 kn.
Dewpoint: 04° c.
Visibility: 10 Statute Miles.
Clouds: Overcast 6000 ft.

PANV 090056Z AUTO 00000KT 10SM OVC060 14/04 A2978 RMK AO2 SLP146 T01390044 TSNO

Going to: --> -->


Wind - Calm.

 
 
jpsmedia worldairports.se 2020   terms of use